Portada
METAR-TAF:

METAR-TAF

Aeroports :

Horn Island, Austràlia

latitud: 10-35-11S, longitud: 142-07-24E, altitud: 13 m

Observació

L'informe es va fer fa 31 minuts, a les 20:00 UTC
Vent 6 kt del Sud
Temperatura 25°C
Humitat 83%
Pressió 1011 hPa
Visibilitat 10 km o més

METAR: YHID 132000Z AUTO 18006KT 9999 // NCD 25/22 Q1011

Hora: 06:31 (20:31 UTC)

Pronòstic

L'informe es va fer fa 3 hores i 7 minuts, a les 17:24 UTC
Pronòstic vàlid del 13 a les 18 UTC al 14 a les 18 UTC
Vent 14 kt del Est/Sud-Est
Visibilitat 10 km o més
Cel ennuvolat a una alçada de 1800 ft
A partir de les 13 a les 2300 UTC
Vent 18 kt del Est
Visibilitat 10 km o més
Núvols disperses a una alçada de 2500 ft
A partir de les 14 a les 0800 UTC
Vent 14 kt del Est/Sud-Est
Visibilitat 10 km o més
Núvols disperses a una alçada de 2000 ft

TAF: YHID 131724Z 1318/1418 12014KT 9999 BKN018 FM132300 10018KT 9999 SCT025 FM140800 12014KT 9999 SCT020

Observacions i pronòstics meteorològics de més de 4000 aeroports (METAR i TAF).

Les estacions disponibles són els punts grocs i vermells al mapa.

Posi el ratolí al punt desitjat per veure el nom de l'estació.

Feu clic per veure les observacions i els pronòstics meteorològics.

Per canviar el mapa: feu clic els botons verds amb una creu de color negre per apropar; al botó verd amb un guió per allunyar la imatge; o en les fletxes verdes per a mapes adjacents.


METAR-TAF: